sensor_id;sensor_type;location;lat;lon;timestamp;pressure;altitude;pressure_sealevel;temperature;humidity
55664;BME280;41540;57.880;12.164;2023-09-18T00:02:36;100851.59;;;12.76;nan
55664;BME280;41540;57.880;12.164;2023-09-18T00:12:37;100794.91;;;12.51;nan
55664;BME280;41540;57.880;12.164;2023-09-18T00:22:37;100810.00;;;12.76;nan
55664;BME280;41540;57.880;12.164;2023-09-18T00:32:38;100783.84;;;12.65;nan
55664;BME280;41540;57.880;12.164;2023-09-18T00:42:38;100817.81;;;12.79;nan
55664;BME280;41540;57.880;12.164;2023-09-18T00:52:39;100792.41;;;12.58;nan
55664;BME280;41540;57.880;12.164;2023-09-18T01:02:40;100550.66;;;11.13;nan
55664;BME280;41540;57.880;12.164;2023-09-18T01:12:46;100811.69;;;12.76;nan
55664;BME280;41540;57.880;12.164;2023-09-18T01:22:47;100676.38;;;11.92;nan
55664;BME280;41540;57.880;12.164;2023-09-18T01:32:50;100753.19;;;12.38;nan
55664;BME280;41540;57.880;12.164;2023-09-18T01:42:52;100684.31;;;12.01;nan
55664;BME280;41540;57.880;12.164;2023-09-18T01:52:52;100712.41;;;12.34;nan
55664;BME280;41540;57.880;12.164;2023-09-18T02:02:52;100496.28;;;11.16;nan
55664;BME280;41540;57.880;12.164;2023-09-18T02:12:53;100668.16;;;12.26;nan
55664;BME280;41540;57.880;12.164;2023-09-18T02:22:53;100652.59;;;12.28;nan
55664;BME280;41540;57.880;12.164;2023-09-18T02:32:53;100694.63;;;12.65;nan
55664;BME280;41540;57.880;12.164;2023-09-18T02:42:54;100657.22;;;12.52;nan
55664;BME280;41540;57.880;12.164;2023-09-18T02:52:54;100653.94;;;12.70;nan
55664;BME280;41540;57.880;12.164;2023-09-18T03:02:54;100664.41;;;12.76;nan
55664;BME280;41540;57.880;12.164;2023-09-18T03:12:54;100519.03;;;12.06;nan
55664;BME280;41540;57.880;12.164;2023-09-18T03:22:57;100638.53;;;12.90;nan
55664;BME280;41540;57.880;12.164;2023-09-18T03:32:57;100528.91;;;12.39;nan
55664;BME280;41540;57.880;12.164;2023-09-18T03:42:58;100509.88;;;12.43;nan
55664;BME280;41540;57.880;12.164;2023-09-18T03:52:58;100496.19;;;12.60;nan
55664;BME280;41540;57.880;12.164;2023-09-18T04:02:59;100562.47;;;13.16;nan
55664;BME280;41540;57.880;12.164;2023-09-18T04:12:59;100547.75;;;13.21;nan
55664;BME280;41540;57.880;12.164;2023-09-18T04:23:19;100408.69;;;12.57;nan
55664;BME280;41540;57.880;12.164;2023-09-18T04:33:20;100371.41;;;12.54;nan
55664;BME280;41540;57.880;12.164;2023-09-18T04:43:21;100488.94;;;13.38;nan
55664;BME280;41540;57.880;12.164;2023-09-18T04:53:26;100307.28;;;12.48;nan
55664;BME280;41540;57.880;12.164;2023-09-18T05:03:28;100347.31;;;12.82;nan
55664;BME280;41540;57.880;12.164;2023-09-18T05:13:29;100348.25;;;12.98;nan
55664;BME280;41540;57.880;12.164;2023-09-18T05:23:29;100433.50;;;13.59;nan
55664;BME280;41540;57.880;12.164;2023-09-18T05:33:30;100301.47;;;13.01;nan
55664;BME280;41540;57.880;12.164;2023-09-18T05:43:30;100340.59;;;13.34;nan
55664;BME280;41540;57.880;12.164;2023-09-18T05:53:31;100379.75;;;13.78;nan
55664;BME280;41540;57.880;12.164;2023-09-18T06:03:31;100261.69;;;13.32;nan
55664;BME280;41540;57.880;12.164;2023-09-18T06:13:35;100302.47;;;14.08;nan
55664;BME280;41540;57.880;12.164;2023-09-18T06:23:36;100248.69;;;13.90;nan
55664;BME280;41540;57.880;12.164;2023-09-18T06:33:37;100181.84;;;13.94;nan
55664;BME280;41540;57.880;12.164;2023-09-18T06:43:38;100211.25;;;14.40;nan
55664;BME280;41540;57.880;12.164;2023-09-18T06:53:38;100226.69;;;14.85;nan
55664;BME280;41540;57.880;12.164;2023-09-18T07:03:39;100237.03;;;15.00;nan
55664;BME280;41540;57.880;12.164;2023-09-18T07:13:40;100238.31;;;15.68;nan
55664;BME280;41540;57.880;12.164;2023-09-18T07:23:41;100145.63;;;15.16;nan
55664;BME280;41540;57.880;12.164;2023-09-18T07:33:41;100136.66;;;15.51;nan
55664;BME280;41540;57.880;12.164;2023-09-18T07:43:42;100214.91;;;16.45;nan
55664;BME280;41540;57.880;12.164;2023-09-18T07:53:43;100188.53;;;15.88;nan
55664;BME280;41540;57.880;12.164;2023-09-18T08:03:44;100188.13;;;16.28;nan
55664;BME280;41540;57.880;12.164;2023-09-18T08:13:45;100180.59;;;15.98;nan
55664;BME280;41540;57.880;12.164;2023-09-18T08:23:45;99951.28;;;14.70;nan
55664;BME280;41540;57.880;12.164;2023-09-18T08:33:46;100024.84;;;15.90;nan
55664;BME280;41540;57.880;12.164;2023-09-18T08:43:47;100128.97;;;16.21;nan
55664;BME280;41540;57.880;12.164;2023-09-18T08:53:49;99996.06;;;15.17;nan
55664;BME280;41540;57.880;12.164;2023-09-18T09:03:51;100095.84;;;16.21;nan
55664;BME280;41540;57.880;12.164;2023-09-18T09:14:13;100095.84;;;16.86;nan
55664;BME280;41540;57.880;12.164;2023-09-18T09:24:42;100039.66;;;17.07;nan
55664;BME280;41540;57.880;12.164;2023-09-18T09:34:43;100035.63;;;16.88;nan
55664;BME280;41540;57.880;12.164;2023-09-18T09:44:44;100026.47;;;16.57;nan
55664;BME280;41540;57.880;12.164;2023-09-18T09:54:45;100002.34;;;16.42;nan
55664;BME280;41540;57.880;12.164;2023-09-18T10:04:47;99896.50;;;16.13;nan
55664;BME280;41540;57.880;12.164;2023-09-18T10:14:51;99895.97;;;16.45;nan
55664;BME280;41540;57.880;12.164;2023-09-18T10:24:57;99954.56;;;17.31;nan
55664;BME280;41540;57.880;12.164;2023-09-18T10:35:00;99836.09;;;16.78;nan
55664;BME280;41540;57.880;12.164;2023-09-18T10:45:02;99941.06;;;18.33;nan
55664;BME280;41540;57.880;12.164;2023-09-18T10:55:05;99934.63;;;18.46;nan
55664;BME280;41540;57.880;12.164;2023-09-18T11:05:08;99815.81;;;18.09;nan
55664;BME280;41540;57.880;12.164;2023-09-18T11:15:08;99882.50;;;17.98;nan
55664;BME280;41540;57.880;12.164;2023-09-18T11:25:36;99881.91;;;17.85;nan
55664;BME280;41540;57.880;12.164;2023-09-18T11:35:51;99865.34;;;17.83;nan
55664;BME280;41540;57.880;12.164;2023-09-18T11:45:54;99821.00;;;17.73;nan
55664;BME280;41540;57.880;12.164;2023-09-18T11:55:55;99775.94;;;17.59;nan
55664;BME280;41540;57.880;12.164;2023-09-18T12:06:01;99745.19;;;17.67;nan
55664;BME280;41540;57.880;12.164;2023-09-18T12:16:03;99798.13;;;17.80;nan
55664;BME280;41540;57.880;12.164;2023-09-18T12:26:07;99791.47;;;18.04;nan
55664;BME280;41540;57.880;12.164;2023-09-18T12:36:08;99766.44;;;17.92;nan
55664;BME280;41540;57.880;12.164;2023-09-18T12:46:21;99762.56;;;17.71;nan
55664;BME280;41540;57.880;12.164;2023-09-18T12:56:27;99750.19;;;17.77;nan
55664;BME280;41540;57.880;12.164;2023-09-18T13:06:28;99680.19;;;17.49;nan
55664;BME280;41540;57.880;12.164;2023-09-18T13:16:28;99609.91;;;17.33;nan
55664;BME280;41540;57.880;12.164;2023-09-18T13:26:29;99653.75;;;17.94;nan
55664;BME280;41540;57.880;12.164;2023-09-18T13:36:29;99610.34;;;18.45;nan
55664;BME280;41540;57.880;12.164;2023-09-18T13:46:29;99610.09;;;18.24;nan
55664;BME280;41540;57.880;12.164;2023-09-18T13:56:30;99552.63;;;17.87;nan
55664;BME280;41540;57.880;12.164;2023-09-18T14:06:32;99512.22;;;17.63;nan
55664;BME280;41540;57.880;12.164;2023-09-18T14:16:32;99472.09;;;17.31;nan
55664;BME280;41540;57.880;12.164;2023-09-18T14:26:33;99403.06;;;17.04;nan
55664;BME280;41540;57.880;12.164;2023-09-18T14:36:40;99492.25;;;17.60;nan
55664;BME280;41540;57.880;12.164;2023-09-18T14:46:40;99355.41;;;16.92;nan
55664;BME280;41540;57.880;12.164;2023-09-18T14:56:41;99426.13;;;17.52;nan
55664;BME280;41540;57.880;12.164;2023-09-18T15:06:41;99294.28;;;16.95;nan
55664;BME280;41540;57.880;12.164;2023-09-18T15:16:42;99381.69;;;17.50;nan
55664;BME280;41540;57.880;12.164;2023-09-18T15:26:42;99410.56;;;17.77;nan
55664;BME280;41540;57.880;12.164;2023-09-18T15:36:42;99341.41;;;17.54;nan
55664;BME280;41540;57.880;12.164;2023-09-18T15:46:43;99280.16;;;17.30;nan
55664;BME280;41540;57.880;12.164;2023-09-18T15:56:44;99329.50;;;17.72;nan
55664;BME280;41540;57.880;12.164;2023-09-18T16:06:44;99324.75;;;17.85;nan
55664;BME280;41540;57.880;12.164;2023-09-18T16:16:46;99255.91;;;17.53;nan
55664;BME280;41540;57.880;12.164;2023-09-18T16:26:47;99284.72;;;17.80;nan
55664;BME280;41540;57.880;12.164;2023-09-18T16:36:47;99266.28;;;17.57;nan
55664;BME280;41540;57.880;12.164;2023-09-18T16:46:48;99344.47;;;17.97;nan
55664;BME280;41540;57.880;12.164;2023-09-18T16:56:48;99342.94;;;17.90;nan
55664;BME280;41540;57.880;12.164;2023-09-18T17:06:49;99307.06;;;17.36;nan
55664;BME280;41540;57.880;12.164;2023-09-18T17:16:49;99208.88;;;16.63;nan
55664;BME280;41540;57.880;12.164;2023-09-18T17:26:50;99320.97;;;17.38;nan
55664;BME280;41540;57.880;12.164;2023-09-18T17:36:50;99225.97;;;17.06;nan
55664;BME280;41540;57.880;12.164;2023-09-18T17:46:50;99300.53;;;17.50;nan
55664;BME280;41540;57.880;12.164;2023-09-18T17:56:51;99311.13;;;17.46;nan
55664;BME280;41540;57.880;12.164;2023-09-18T18:06:51;99324.81;;;17.26;nan
55664;BME280;41540;57.880;12.164;2023-09-18T18:16:52;99348.53;;;17.20;nan
55664;BME280;41540;57.880;12.164;2023-09-18T18:26:54;99320.97;;;17.08;nan
55664;BME280;41540;57.880;12.164;2023-09-18T18:36:55;99322.88;;;17.01;nan
55664;BME280;41540;57.880;12.164;2023-09-18T18:46:55;99138.75;;;16.47;nan
55664;BME280;41540;57.880;12.164;2023-09-18T18:56:57;99119.66;;;17.03;nan
55664;BME280;41540;57.880;12.164;2023-09-18T19:06:57;99118.78;;;17.03;nan
55664;BME280;41540;57.880;12.164;2023-09-18T19:16:58;99044.66;;;17.04;nan
55664;BME280;41540;57.880;12.164;2023-09-18T19:26:59;98867.91;;;16.45;nan
55664;BME280;41540;57.880;12.164;2023-09-18T19:37:00;98920.78;;;17.05;nan
55664;BME280;41540;57.880;12.164;2023-09-18T19:47:00;98843.53;;;16.94;nan
55664;BME280;41540;57.880;12.164;2023-09-18T19:57:01;98678.66;;;16.50;nan
55664;BME280;41540;57.880;12.164;2023-09-18T20:07:01;98689.84;;;17.01;nan
55664;BME280;41540;57.880;12.164;2023-09-18T20:17:06;98613.75;;;16.62;nan
55664;BME280;41540;57.880;12.164;2023-09-18T20:27:06;98749.78;;;17.07;nan
55664;BME280;41540;57.880;12.164;2023-09-18T20:37:09;98685.44;;;16.78;nan
55664;BME280;41540;57.880;12.164;2023-09-18T20:47:09;98651.25;;;16.61;nan
55664;BME280;41540;57.880;12.164;2023-09-18T20:57:10;98724.56;;;17.05;nan
55664;BME280;41540;57.880;12.164;2023-09-18T21:07:10;98616.91;;;16.46;nan
55664;BME280;41540;57.880;12.164;2023-09-18T21:17:11;98695.25;;;16.97;nan
55664;BME280;41540;57.880;12.164;2023-09-18T21:27:11;98499.19;;;15.80;nan
55664;BME280;41540;57.880;12.164;2023-09-18T21:37:11;98575.19;;;16.21;nan
55664;BME280;41540;57.880;12.164;2023-09-18T21:47:12;98650.75;;;16.51;nan
55664;BME280;41540;57.880;12.164;2023-09-18T21:57:13;98534.75;;;16.08;nan
55664;BME280;41540;57.880;12.164;2023-09-18T22:07:14;98583.38;;;16.57;nan
55664;BME280;41540;57.880;12.164;2023-09-18T22:17:14;98593.19;;;16.52;nan
55664;BME280;41540;57.880;12.164;2023-09-18T22:27:15;98535.13;;;16.44;nan
55664;BME280;41540;57.880;12.164;2023-09-18T22:37:16;98433.31;;;15.97;nan
55664;BME280;41540;57.880;12.164;2023-09-18T22:57:57;98397.72;;;15.94;nan
55664;BME280;41540;57.880;12.164;2023-09-18T23:08:01;98438.88;;;16.33;nan
55664;BME280;41540;57.880;12.164;2023-09-18T23:18:07;98366.38;;;15.94;nan
55664;BME280;41540;57.880;12.164;2023-09-18T23:28:07;98396.72;;;16.43;nan
55664;BME280;41540;57.880;12.164;2023-09-18T23:38:08;98338.19;;;16.47;nan
55664;BME280;41540;57.880;12.164;2023-09-18T23:58:15;98311.31;;;16.43;nan
